Decoded Metar for KBIV (HOLLAND in MI, USA) (IATA:BIV) | Meteo·Mobile Aviation Weather
aviador You're here:

KBIV Decoded Metar

HOLLAND in MI, USA
Report Time2018-12-12 00:53:00
UTC Time2018-12-12 01:39:27
Flight Rules mvfr MVFR
Wind090° at 03 kt
W.Decomp.*RWY 08: 2.9 kt HW 0.7 kt RCW
W.Rank090° ranks 11
Current wind is below 090° avg. (6.8)
Visibility9999 m
Phenomena:N/A
Clouds:Overcast 019 Hf
Expected CloudBase > 1,200 ft AGL from Temp-Dew spread
Ceiling1,900 ft
Temp-1°C (ISA -15)
Dew Point-4°C (80% RH)
AAT-4.6°C
QNH1019 hPa
Density Alt-1,250 ft
Elevation682 ft
Report Wrong Elevation
Raw Report
KBIV 120053Z AUTO 09003KT 8SM OVC019 M01/M04 A3008 RMK AO2 SLP192
T10061044=

Extra information for KBIV:More info

Metar Taf Metar & Taf Last 4 Metars F.Rules Stats Wind Profile Meteogram Temp Stats Airport Information Weather charts Add Link Nearby VenuesMetar ALERT Operation Metar Decoded Social comments

AIRNAV info for KBIV